ADDS METAR Data INFO
IDs: Format: Raw Decoded Include TAF

Data at: 0108 UTC 24 Jun 2018

K28J 240055Z AUTO 18006KT 10SM FEW049 26/22 A2999 RMK AO2
K28J 240035Z AUTO 16005KT 10SM CLR 27/22 A2999 RMK AO2
K28J 240015Z AUTO 16006KT 10SM CLR 27/23 A2998 RMK AO2
K28J 232355Z AUTO 16004KT 10SM CLR 27/23 A2998 RMK AO2
K28J 232335Z AUTO 21003KT 10SM CLR 27/23 A2998 RMK AO2
K28J 232315Z AUTO 24004KT 10SM CLR 27/23 A2998 RMK AO2
K28J 232255Z AUTO 21006G14KT 10SM FEW065 27/23 A2997 RMK AO2
K28J 232235Z AUTO 20008KT 10SM CLR 28/23 A2998 RMK AO2
K28J 232215Z AUTO 18009KT 10SM VCTS FEW065 29/24 A2997 RMK AO2 LTG DSNT SE-SW
K28J 232155Z AUTO 17012G17KT 150V210 10SM VCTS SCT065 33/24 A2996 RMK AO2 LTG DSNT SE-SW
K28J 232135Z AUTO 23005KT 9SM VCTS CLR 33/25 A2997 RMK AO2 LTG DSNT SE-SW
K28J 232115Z AUTO 23004KT 10SM VCTS CLR 31/25 A2996 RMK AO2 LTG DSNT SE AND S
K28J 232055Z AUTO 24006KT 4SM VCTS -RA FEW050 SCT065 28/25 A2996 RMK AO2 LTG DSNT SE-SW P0001
K28J 232035Z AUTO 29005KT 10SM SCT050 BKN065 33/22 A2996 RMK AO2 LTG DSNT SE AND S
K28J 232015Z AUTO 30004KT 10SM FEW050 BKN065 BKN120 34/22 A2996 RMK AO2
K28J 231955Z AUTO 35003KT 10SM BKN050 34/22 A2996 RMK AO2
K28J 231935Z AUTO 02005KT 10SM SCT050 34/23 A2996 RMK AO2
K28J 231915Z AUTO 00000KT 10SM FEW050 34/22 A2997 RMK AO2
K28J 231855Z AUTO 29007KT 10SM FEW050 34/23 A2998 RMK AO2
K28J 231835Z AUTO 28006KT 10SM SCT048 34/22 A2999 RMK AO2
K28J 231815Z AUTO 30006KT 10SM SCT048 33/23 A2999 RMK AO2
K28J 231755Z AUTO 30007KT 10SM SCT046 BKN050 33/22 A3000 RMK AO2
K28J 231735Z AUTO 31008KT 280V340 10SM SCT044 SCT050 33/23 A3001 RMK AO2
K28J 231715Z AUTO 29009KT 10SM FEW044 33/23 A3001 RMK AO2
K28J 231655Z AUTO 27009G14KT 10SM FEW041 FEW049 33/23 A3001 RMK AO2
K28J 231635Z AUTO 26003KT 10SM FEW043 33/23 A3001 RMK AO2
K28J 231615Z AUTO 27006KT 10SM FEW040 32/23 A3001 RMK AO2
K28J 231555Z AUTO 31009G14KT 260V320 10SM SCT038 32/23 A3001 RMK AO2
K28J 231535Z AUTO 27008KT 230V290 10SM FEW038 32/23 A3002 RMK AO2
K28J 231515Z AUTO 29009G14KT 250V310 10SM FEW036 32/23 A3002 RMK AO2
K28J 231455Z AUTO 26010KT 10SM SCT030 SCT035 31/23 A3002 RMK AO2
K28J 231435Z AUTO 28008G14KT 10SM BKN028 BKN035 30/24 A3001 RMK AO2
K28J 231415Z AUTO 29009KT 10SM FEW025 30/24 A3001 RMK AO2
K28J 231355Z AUTO 27011KT 10SM SCT023 30/25 A3002 RMK AO2
K28J 231335Z AUTO 26009G14KT 10SM FEW023 SCT033 29/25 A3002 RMK AO2
K28J 231315Z AUTO 27010G15KT 10SM FEW033 29/25 A3002 RMK AO2
K28J 231255Z AUTO 25007KT 10SM CLR 28/26 A3002 RMK AO2
K28J 231235Z AUTO 26006KT 10SM CLR 27/26 A3001 RMK AO2
K28J 231215Z AUTO 26005KT 10SM CLR 27/26 A3001 RMK AO2
K28J 231155Z AUTO 25006KT 10SM CLR 25/25 A3001 RMK AO2
K28J 231135Z AUTO 26005KT 9SM CLR 25/25 A3000 RMK AO2
K28J 231115Z AUTO 00000KT 8SM CLR 24/24 A2999 RMK AO2
K28J 231055Z AUTO 00000KT 5SM BR CLR 24/24 A2998 RMK AO2
K28J 231035Z AUTO 22003KT 10SM CLR 24/24 A2998 RMK AO2
K28J 231015Z AUTO 00000KT 9SM FEW018 24/24 A2997 RMK AO2
K28J 230955Z AUTO 21003KT 10SM FEW018 24/24 A2997 RMK AO2
K28J 230935Z AUTO 22004KT 10SM FEW018 25/25 A2996 RMK AO2
K28J 230915Z AUTO 21005KT 10SM FEW018 25/25 A2996 RMK AO2
K28J 230855Z AUTO 21005KT 10SM FEW018 25/25 A2995 RMK AO2
K28J 230835Z AUTO 22004KT 10SM SCT018 25/25 A2995 RMK AO2
K28J 230815Z AUTO 22005KT 10SM SCT018 25/25 A2995 RMK AO2
K28J 230755Z AUTO 21006KT 10SM FEW018 25/25 A2995 RMK AO2
K28J 230735Z AUTO 21005KT 10SM CLR 25/25 A2995 RMK AO2
K28J 230715Z AUTO 22004KT 10SM CLR A2995 RMK AO2
K28J 230655Z AUTO 21004KT 10SM CLR 25/25 A2996 RMK AO2
K28J 230635Z AUTO 20005KT 10SM FEW020 25/25 A2996 RMK AO2
K28J 230615Z AUTO 00000KT 10SM FEW020 25/25 A2997 RMK AO2
K28J 230555Z AUTO 22004KT 10SM CLR 25/25 A2997 RMK AO2
K28J 230535Z AUTO 21004KT 10SM CLR 25/25 A2997 RMK AO2
K28J 230515Z AUTO 23003KT 10SM CLR 25/25 A2997 RMK AO2
K28J 230455Z AUTO 00000KT 10SM CLR 24/24 A2998 RMK AO2
K28J 230435Z AUTO 26004KT 10SM CLR 24/24 A2998 RMK AO2
K28J 230415Z AUTO 24004KT 10SM CLR 24/24 A2997 RMK AO2
K28J 230355Z AUTO 00000KT 10SM CLR 24/24 A2998 RMK AO2
K28J 230335Z AUTO 00000KT 10SM CLR 25/23 A2998 RMK AO2
K28J 230315Z AUTO 25003KT 10SM CLR 25/23 A2997 RMK AO2
K28J 230255Z AUTO 27003KT 10SM CLR 25/23 A2997 RMK AO2
K28J 230235Z AUTO 27003KT 10SM CLR 25/23 A2996 RMK AO2
K28J 230215Z AUTO 27003KT 10SM CLR 26/23 A2996 RMK AO2
K28J 230155Z AUTO 26004KT 10SM CLR A2994 RMK AO2
K28J 230135Z AUTO 26005KT 10SM CLR 28/22 A2994 RMK AO2
K28J 230115Z AUTO 25005KT 10SM CLR 27/22 A2993 RMK AO2
K28J 230055Z AUTO 26004KT 10SM CLR 27/23 A2993 RMK AO2
K28J 230035Z AUTO 27004KT 10SM CLR 28/22 A2993 RMK AO2
K28J 230015Z AUTO 24004KT 10SM CLR 30/21 A2993 RMK AO2
K28J 222355Z AUTO 23005KT 10SM CLR 30/21 A2993 RMK AO2 LTG DSNT SE
K28J 222335Z AUTO 25005KT 10SM CLR 31/21 A2991 RMK AO2 LTG DSNT SE AND S
K28J 222315Z AUTO 25008KT 10SM CLR 32/22 A2990 RMK AO2 LTG DSNT SE
K28J 222255Z AUTO 25006KT 10SM CLR 33/23 A2990 RMK AO2
K28J 222235Z AUTO 26010KT 10SM SCT050 33/22 A2990 RMK AO2 LTG DSNT SE AND S
K28J 222215Z AUTO 28008KT 10SM VCTS FEW050 33/23 A2990 RMK AO2 LTG DSNT SE AND S
K28J 222155Z AUTO 29008KT 10SM FEW050 33/23 A2990 RMK AO2 LTG DSNT SE
K28J 222135Z AUTO 29008KT 10SM CLR 34/22 A2990 RMK AO2 LTG DSNT SE AND S
K28J 222115Z AUTO 26012KT 10SM CLR 34/22 A2991 RMK AO2 LTG DSNT SE
K28J 222055Z AUTO 27013G16KT 10SM CLR 34/22 A2991 RMK AO2 LTG DSNT SE
K28J 222035Z AUTO 29008G15KT 10SM CLR 34/23 A2991 RMK AO2 LTG DSNT SE AND S
K28J 222015Z AUTO 27008G15KT 10SM CLR 34/23 A2991 RMK AO2 LTG DSNT SE
K28J 221955Z AUTO 27007G15KT 240V300 10SM FEW050 34/23 A2991 RMK AO2 LTG DSNT SE
K28J 221935Z AUTO 26009KT 10SM VCTS CLR 34/22 A2992 RMK AO2 LTG DSNT N AND SE
K28J 221915Z AUTO 28005G14KT 10SM FEW050 34/22 A2992 RMK AO2 LTG DSNT N AND SE
K28J 221855Z AUTO 27010G15KT 10SM FEW050 34/23 A2993 RMK AO2 LTG DSNT N AND SE
K28J 221835Z AUTO 32008G14KT 10SM CLR 34/23 A2994 RMK AO2
K28J 221815Z AUTO 29008G14KT 10SM CLR 34/22 A2994 RMK AO2
K28J 221755Z AUTO 26006KT 10SM CLR 33/23 A2995 RMK AO2
K28J 221735Z AUTO 27010G14KT 10SM CLR 33/23 A2995 RMK AO2
K28J 221715Z AUTO 26008KT 10SM FEW043 SCT050 33/23 A2996 RMK AO2
K28J 221655Z AUTO 28009KT 10SM SCT039 33/23 A2996 RMK AO2
K28J 221635Z AUTO 22005KT 10SM FEW041 32/23 A2996 RMK AO2
K28J 221615Z AUTO 25006KT 10SM SCT038 32/23 A2996 RMK AO2
K28J 221555Z AUTO 30006KT 10SM SCT036 SCT045 32/24 A2996 RMK AO2
K28J 221535Z AUTO 31008KT 10SM FEW036 32/23 A2997 RMK AO2
K28J 221515Z AUTO 27011G15KT 10SM FEW032 32/23 A2997 RMK AO2
K28J 221455Z AUTO 30007KT 10SM FEW032 31/24 A2997 RMK AO2
K28J 221435Z AUTO 28010G15KT 10SM FEW026 30/24 A2997 RMK AO2
K28J 221415Z AUTO 32009KT 10SM FEW024 30/24 A2998 RMK AO2
K28J 221355Z AUTO 31007KT 250V330 10SM FEW024 30/25 A2998 RMK AO2
K28J 221335Z AUTO 32009KT 10SM FEW021 29/25 A2998 RMK AO2
K28J 221315Z AUTO 31008KT 10SM FEW018 FEW023 29/25 A2998 RMK AO2